createdAt,value
2022-11-05T00:00:29.814Z,79.43
2022-11-05T00:03:16.044Z,79.13
2022-11-05T00:06:05.211Z,78.96
2022-11-05T00:08:51.111Z,79.74
2022-11-05T00:11:18.625Z,79.52
2022-11-05T00:14:04.704Z,79.88
2022-11-05T00:16:46.562Z,80.21
2022-11-05T00:19:14.903Z,80.34
2022-11-05T00:22:05.055Z,79.86
2022-11-05T00:24:54.218Z,80.15
2022-11-05T00:27:21.481Z,80.37
2022-11-05T00:29:48.625Z,80.16
2022-11-05T00:32:16.305Z,80.72
2022-11-05T00:34:43.274Z,79.23
2022-11-05T00:37:10.342Z,79.33
2022-11-05T00:39:37.432Z,79.60
2022-11-05T00:42:23.142Z,80.49
2022-11-05T00:45:00.972Z,79.65
2022-11-05T00:47:47.590Z,79.48
2022-11-05T00:50:14.915Z,79.63
2022-11-05T00:52:57.801Z,80.03
2022-11-05T00:55:46.110Z,80.16
2022-11-05T00:58:22.742Z,79.40
2022-11-05T01:00:56.180Z,80.04
2022-11-05T01:03:31.688Z,80.42
2022-11-05T01:06:10.563Z,81.35
2022-11-05T01:08:38.328Z,80.72
2022-11-05T01:11:37.256Z,81.25
2022-11-05T01:14:08.622Z,80.47
2022-11-05T01:16:36.605Z,80.64
2022-11-05T01:19:06.096Z,80.53
2022-11-05T01:21:33.847Z,79.57
2022-11-05T01:24:01.273Z,80.49
2022-11-05T01:26:28.459Z,80.28
2022-11-05T01:28:57.845Z,79.40
2022-11-05T01:31:25.143Z,80.36
2022-11-05T01:33:52.090Z,80.44
2022-11-05T01:36:19.495Z,80.20
2022-11-05T01:38:46.442Z,80.01
2022-11-05T01:41:13.411Z,80.85
2022-11-05T01:43:56.659Z,80.34
2022-11-05T01:46:33.835Z,81.05
2022-11-05T01:49:17.315Z,80.01
2022-11-05T01:51:46.191Z,80.16
2022-11-05T01:54:18.669Z,80.33
2022-11-05T01:56:53.244Z,81.12
2022-11-05T01:59:35.101Z,80.97
2022-11-05T02:02:03.791Z,80.25
2022-11-05T02:04:36.269Z,81.23
2022-11-05T02:07:06.306Z,80.80
2022-11-05T02:10:03.443Z,81.11
2022-11-05T02:12:33.062Z,81.95
2022-11-05T02:15:00.479Z,81.13
2022-11-05T02:17:35.964Z,81.52
2022-11-05T02:20:11.802Z,80.39
2022-11-05T02:23:19.335Z,79.89
2022-11-05T02:26:37.559Z,81.10
2022-11-05T02:29:29.894Z,81.74
2022-11-05T02:32:24.875Z,82.29
2022-11-05T02:35:31.926Z,83.08
2022-11-05T02:38:37.574Z,82.82
2022-11-05T02:41:21.796Z,82.66
2022-11-05T02:44:20.259Z,83.89
2022-11-05T02:46:57.300Z,83.29
2022-11-05T02:49:59.298Z,83.44
2022-11-05T02:53:03.243Z,83.21
2022-11-05T02:56:15.228Z,82.84
2022-11-05T02:58:42.211Z,82.64
2022-11-05T03:06:22.282Z,83.79
2022-11-05T03:09:10.599Z,82.77
2022-11-05T03:12:24.331Z,83.31
2022-11-05T03:15:41.523Z,83.52
2022-11-05T03:18:39.485Z,82.31
2022-11-05T03:21:24.961Z,82.59
2022-11-05T03:24:03.362Z,82.29
2022-11-05T03:26:37.998Z,82.36
2022-11-05T03:29:11.566Z,82.01
2022-11-05T03:31:40.903Z,82.29
2022-11-05T03:34:11.173Z,81.92
2022-11-05T03:36:44.320Z,82.32
2022-11-05T03:39:29.540Z,80.98
2022-11-05T03:41:59.130Z,81.03
2022-11-05T03:44:33.113Z,80.86
2022-11-05T03:47:13.974Z,80.27
2022-11-05T03:50:07.620Z,81.32
2022-11-05T03:52:51.428Z,81.89
2022-11-05T03:55:19.015Z,80.93
2022-11-05T03:57:51.284Z,81.43
2022-11-05T04:00:18.532Z,80.80
2022-11-05T04:02:45.624Z,81.16
2022-11-05T04:05:12.990Z,81.15
2022-11-05T04:07:58.436Z,81.60
2022-11-05T04:10:43.881Z,80.50
2022-11-05T04:13:27.928Z,80.48
2022-11-05T04:16:15.485Z,81.96
2022-11-05T04:18:42.969Z,81.84
2022-11-05T04:21:30.318Z,80.59
2022-11-05T04:24:10.102Z,79.39
2022-11-05T04:26:41.091Z,79.33
2022-11-05T04:29:27.297Z,78.78
2022-11-05T04:31:55.278Z,80.80
2022-11-05T04:34:22.954Z,80.40
2022-11-05T04:36:53.277Z,80.24
2022-11-05T04:39:21.503Z,80.12
2022-11-05T04:41:49.064Z,80.09
2022-11-05T04:44:17.192Z,79.11
2022-11-05T04:46:44.321Z,79.25
2022-11-05T04:49:11.273Z,80.21
2022-11-05T04:51:38.517Z,80.27
2022-11-05T04:54:05.712Z,80.41
2022-11-05T04:56:32.840Z,80.29
2022-11-05T04:58:59.938Z,80.19
2022-11-05T05:01:27.234Z,79.88
2022-11-05T05:03:55.632Z,80.25
2022-11-05T05:06:23.049Z,79.84
2022-11-05T05:08:51.600Z,80.25
2022-11-05T05:11:21.296Z,79.96
2022-11-05T05:13:49.336Z,79.82
2022-11-05T05:16:23.426Z,79.33
2022-11-05T05:18:51.678Z,82.05
2022-11-05T05:21:39.179Z,81.70
2022-11-05T05:24:33.847Z,79.03
2022-11-05T05:27:01.449Z,80.10
2022-11-05T05:29:28.389Z,80.92
2022-11-05T05:31:55.462Z,82.26
2022-11-05T05:34:22.726Z,81.58
2022-11-05T05:36:49.693Z,83.14
2022-11-05T05:39:16.984Z,82.23
2022-11-05T05:41:43.917Z,83.55
2022-11-05T05:44:11.056Z,82.33
2022-11-05T05:46:38.039Z,80.54
2022-11-05T05:49:11.079Z,80.17
2022-11-05T05:51:39.599Z,79.73
2022-11-05T05:54:06.793Z,79.64
2022-11-05T05:56:33.705Z,79.12
2022-11-05T05:59:00.659Z,79.27
2022-11-05T06:01:27.839Z,79.26
2022-11-05T06:03:54.789Z,78.82
2022-11-05T06:06:22.678Z,79.97
2022-11-05T06:08:49.722Z,79.59
2022-11-05T06:11:17.146Z,80.13
2022-11-05T06:13:44.127Z,80.52
2022-11-05T06:16:11.412Z,80.07
2022-11-05T06:18:38.995Z,83.39
2022-11-05T06:21:12.662Z,80.44
2022-11-05T06:23:42.334Z,79.66
2022-11-05T06:26:17.145Z,80.25
2022-11-05T06:28:45.278Z,80.79
2022-11-05T06:31:14.518Z,81.63
2022-11-05T06:33:41.722Z,80.26
2022-11-05T06:36:13.846Z,80.27
2022-11-05T06:38:40.863Z,80.14
2022-11-05T06:41:10.502Z,79.71
2022-11-05T06:43:38.413Z,82.32
2022-11-05T06:46:06.106Z,82.93
2022-11-05T06:48:33.504Z,81.13
2022-11-05T06:51:00.907Z,79.93
2022-11-05T06:53:28.113Z,81.95
2022-11-05T06:55:55.335Z,81.25
2022-11-05T06:58:22.775Z,81.52
2022-11-05T07:00:49.910Z,80.41
2022-11-05T07:03:17.389Z,80.69
2022-11-05T07:05:48.399Z,82.17
2022-11-05T07:08:16.255Z,81.99
2022-11-05T07:10:43.424Z,80.87
2022-11-05T07:13:11.225Z,79.50
2022-11-05T07:15:38.511Z,80.20
2022-11-05T07:18:09.599Z,79.69
2022-11-05T07:20:36.550Z,83.07
2022-11-05T07:23:12.262Z,82.31
2022-11-05T07:25:40.479Z,81.12
2022-11-05T07:28:08.564Z,79.52
2022-11-05T07:30:36.470Z,79.51
2022-11-05T07:33:04.482Z,79.41
2022-11-05T07:35:32.040Z,78.85
2022-11-05T07:37:59.407Z,79.68
2022-11-05T07:40:29.465Z,79.97
2022-11-05T07:43:00.115Z,80.56
2022-11-05T07:45:29.064Z,82.70
2022-11-05T07:48:00.700Z,81.12
2022-11-05T07:50:34.350Z,79.92
2022-11-05T07:53:10.024Z,80.97
2022-11-05T07:55:37.676Z,80.93
2022-11-05T07:58:04.874Z,80.72
2022-11-05T08:00:32.807Z,80.65
2022-11-05T08:03:13.054Z,82.17
2022-11-05T08:05:44.605Z,79.25
2022-11-05T08:08:16.814Z,78.79
2022-11-05T08:10:44.392Z,79.60
2022-11-05T08:13:13.406Z,79.54
2022-11-05T08:15:42.247Z,78.14
2022-11-05T08:18:17.166Z,75.21
2022-11-05T08:20:46.406Z,78.61
2022-11-05T08:23:14.416Z,76.79
2022-11-05T08:25:42.066Z,75.53
2022-11-05T08:28:13.070Z,77.92
2022-11-05T08:30:40.582Z,74.42
2022-11-05T08:33:12.201Z,75.29
2022-11-05T08:35:39.868Z,75.17
2022-11-05T08:38:10.422Z,75.15
2022-11-05T08:40:37.970Z,74.06
2022-11-05T08:43:08.133Z,74.50
2022-11-05T08:45:39.316Z,74.70
2022-11-05T08:48:15.186Z,75.97
2022-11-05T08:50:43.372Z,75.65
2022-11-05T08:53:11.439Z,74.80
2022-11-05T08:55:39.135Z,75.06
2022-11-05T08:58:12.667Z,76.77
2022-11-05T09:00:40.033Z,75.22
2022-11-05T09:03:09.398Z,73.53
2022-11-05T09:05:39.901Z,72.03
2022-11-05T09:08:19.020Z,73.62
2022-11-05T09:10:47.457Z,73.28
2022-11-05T09:13:18.852Z,72.49
2022-11-05T09:15:49.302Z,71.40
2022-11-05T09:18:18.110Z,73.92
2022-11-05T09:20:46.793Z,72.80
2022-11-05T09:23:15.558Z,71.59
2022-11-05T09:25:43.404Z,74.43
2022-11-05T09:28:16.833Z,72.76
2022-11-05T09:30:50.613Z,72.83
2022-11-05T09:33:24.173Z,72.38
2022-11-05T09:35:52.795Z,71.00
2022-11-05T09:38:20.200Z,73.44
2022-11-05T09:40:52.962Z,73.16
2022-11-05T09:43:31.240Z,71.12
2022-11-05T09:46:04.540Z,71.32
2022-11-05T09:48:34.029Z,72.33
2022-11-05T09:51:01.276Z,70.17
2022-11-05T09:53:28.834Z,72.01
2022-11-05T09:55:59.005Z,72.07
2022-11-05T09:58:56.605Z,72.07
2022-11-05T10:01:33.797Z,72.42
2022-11-05T10:04:07.834Z,70.28
2022-11-05T10:06:37.063Z,72.13
2022-11-05T10:09:22.861Z,72.30
2022-11-05T10:12:10.864Z,70.48
2022-11-05T10:14:47.044Z,70.64
2022-11-05T10:17:24.713Z,72.46
2022-11-05T10:20:08.294Z,68.54
2022-11-05T10:22:36.407Z,69.95
2022-11-05T10:25:18.751Z,70.26
2022-11-05T10:27:53.532Z,66.77
2022-11-05T10:30:21.981Z,64.21
2022-11-05T10:32:52.069Z,64.76
2022-11-05T10:35:24.088Z,66.14
2022-11-05T10:37:53.514Z,67.42
2022-11-05T10:40:40.805Z,64.61
2022-11-05T10:43:21.547Z,65.65
2022-11-05T10:46:10.490Z,64.14
2022-11-05T10:49:15.240Z,64.32
2022-11-05T10:51:43.819Z,64.37
2022-11-05T10:54:24.324Z,65.97
2022-11-05T10:56:51.729Z,64.47
2022-11-05T10:59:30.687Z,63.17
2022-11-05T11:02:11.569Z,63.91
2022-11-05T11:04:38.702Z,60.64
2022-11-05T11:07:17.617Z,62.00
2022-11-05T11:09:49.358Z,62.65
2022-11-05T11:12:23.582Z,62.38
2022-11-05T11:15:08.171Z,64.21
2022-11-05T11:17:35.148Z,61.68
2022-11-05T11:20:20.760Z,64.26
2022-11-05T11:23:05.832Z,65.09
2022-11-05T11:25:52.917Z,65.79
2022-11-05T11:28:30.879Z,65.21
2022-11-05T11:31:21.259Z,62.62
2022-11-05T11:33:52.944Z,64.07
2022-11-05T11:36:27.175Z,61.73
2022-11-05T11:39:01.234Z,62.16
2022-11-05T11:41:39.381Z,61.84
2022-11-05T11:44:20.875Z,64.99
2022-11-05T11:46:56.657Z,63.75
2022-11-05T11:49:36.905Z,64.00
2022-11-05T11:52:11.241Z,61.83
2022-11-05T11:54:38.281Z,63.77
2022-11-05T11:57:29.555Z,66.39
2022-11-05T12:00:14.096Z,64.65
2022-11-05T12:03:02.485Z,64.06
2022-11-05T12:05:47.954Z,68.49
2022-11-05T12:09:00.592Z,64.85
2022-11-05T12:11:50.788Z,66.40
2022-11-05T12:14:30.655Z,64.91
2022-11-05T12:17:18.746Z,64.39
2022-11-05T12:19:57.342Z,62.64
2022-11-05T12:23:30.622Z,63.68
2022-11-05T12:26:33.980Z,62.53
2022-11-05T12:29:22.304Z,61.20
2022-11-05T12:32:26.148Z,63.50
2022-11-05T12:35:05.086Z,64.43
2022-11-05T12:37:53.333Z,64.04
2022-11-05T12:40:50.451Z,60.40
2022-11-05T12:43:37.940Z,62.26
2022-11-05T12:46:45.979Z,61.75
2022-11-05T12:49:31.929Z,63.17
2022-11-05T12:52:19.308Z,61.87
2022-11-05T12:55:14.021Z,60.52
2022-11-05T12:57:44.288Z,59.50
2022-11-05T13:00:23.270Z,61.44
2022-11-05T13:03:20.932Z,63.53
2022-11-05T13:06:10.873Z,64.54
2022-11-05T13:08:57.686Z,67.12
2022-11-05T13:11:41.427Z,65.74
2022-11-05T13:14:33.553Z,62.16
2022-11-05T13:17:11.388Z,65.74
2022-11-05T13:20:19.805Z,67.38
2022-11-05T13:22:55.126Z,67.95
2022-11-05T13:25:29.153Z,68.16
2022-11-05T13:28:46.817Z,68.96
2022-11-05T13:31:20.884Z,73.01
2022-11-05T13:33:51.255Z,74.54
2022-11-05T13:36:50.589Z,75.16
2022-11-05T13:39:43.669Z,74.87
2022-11-05T13:42:44.403Z,73.97
2022-11-05T13:45:52.644Z,74.72
2022-11-05T13:48:56.166Z,73.82
2022-11-05T13:51:39.693Z,73.05
2022-11-05T13:54:46.121Z,72.65
2022-11-05T13:58:00.673Z,73.62
2022-11-05T14:00:33.699Z,73.58
2022-11-05T14:03:14.877Z,73.51
2022-11-05T14:05:43.343Z,73.89
2022-11-05T14:08:27.802Z,73.11
2022-11-05T14:11:13.549Z,73.86
2022-11-05T14:13:44.506Z,73.00
2022-11-05T14:16:25.731Z,71.40
2022-11-05T14:19:18.626Z,68.90
2022-11-05T14:21:59.439Z,70.61
2022-11-05T14:24:44.136Z,72.11
2022-11-05T14:27:14.364Z,73.74
2022-11-05T14:29:47.789Z,74.02
2022-11-05T14:32:50.178Z,70.91
2022-11-05T14:35:17.318Z,71.32
2022-11-05T14:37:59.209Z,71.68
2022-11-05T14:40:42.565Z,71.81
2022-11-05T14:43:23.532Z,71.71
2022-11-05T14:46:02.383Z,71.79
2022-11-05T14:48:48.145Z,70.96
2022-11-05T14:51:27.070Z,72.02
2022-11-05T14:54:32.118Z,71.78
2022-11-05T14:57:02.487Z,71.52
2022-11-05T14:59:31.731Z,70.86
2022-11-05T15:02:15.883Z,70.21
2022-11-05T15:04:45.611Z,71.91
2022-11-05T15:07:36.265Z,69.76
2022-11-05T15:10:13.556Z,70.89
2022-11-05T15:12:51.729Z,71.03
2022-11-05T15:15:30.694Z,70.21
2022-11-05T15:18:35.406Z,70.09
2022-11-05T15:21:05.022Z,71.51
2022-11-05T15:23:47.435Z,72.33
2022-11-05T15:27:01.919Z,71.32
2022-11-05T15:29:31.923Z,71.00
2022-11-05T15:31:59.930Z,70.98
2022-11-05T15:34:33.986Z,71.89
2022-11-05T15:37:12.339Z,71.28
2022-11-05T15:39:40.683Z,71.13
2022-11-05T15:42:23.053Z,71.44
2022-11-05T15:45:00.359Z,73.25
2022-11-05T15:47:34.223Z,71.09
2022-11-05T15:50:15.581Z,71.59
2022-11-05T15:52:53.198Z,71.69
2022-11-05T15:55:24.456Z,71.70
2022-11-05T15:58:06.338Z,71.76
2022-11-05T16:00:36.747Z,72.12
2022-11-05T16:03:12.471Z,70.89
2022-11-05T16:05:47.227Z,70.82
2022-11-05T16:08:22.419Z,70.87
2022-11-05T16:10:53.483Z,70.75
2022-11-05T16:13:41.778Z,70.94
2022-11-05T16:16:14.653Z,71.72
2022-11-05T16:18:43.716Z,70.90
2022-11-05T16:21:18.963Z,74.40
2022-11-05T16:23:58.193Z,74.44
2022-11-05T16:29:40.947Z,72.88
2022-11-05T16:32:39.058Z,71.29
2022-11-05T16:35:16.295Z,71.13
2022-11-05T16:37:46.372Z,71.36
2022-11-05T16:40:25.532Z,70.89
2022-11-05T16:42:54.112Z,69.59
2022-11-05T16:45:24.846Z,71.38
2022-11-05T16:47:52.210Z,71.27
2022-11-05T16:50:27.400Z,71.56
2022-11-05T16:52:54.469Z,71.05
2022-11-05T16:55:21.615Z,70.67
2022-11-05T16:57:54.460Z,70.86
2022-11-05T17:00:22.688Z,71.39
2022-11-05T17:02:50.335Z,71.39
2022-11-05T17:05:30.377Z,71.45
2022-11-05T17:07:58.139Z,70.57
2022-11-05T17:10:26.785Z,70.81
2022-11-05T17:12:54.029Z,70.64
2022-11-05T17:15:36.501Z,70.97
2022-11-05T17:18:05.602Z,71.84
2022-11-05T17:20:48.966Z,71.62
2022-11-05T17:23:20.941Z,71.25
2022-11-05T17:25:56.473Z,72.09
2022-11-05T17:28:23.762Z,71.25
2022-11-05T17:30:53.878Z,71.32
2022-11-05T17:33:23.142Z,71.40
2022-11-05T17:35:50.622Z,72.10
2022-11-05T17:38:18.038Z,72.41
2022-11-05T17:40:45.325Z,74.46
2022-11-05T17:43:12.560Z,74.79
2022-11-05T17:45:46.174Z,75.70
2022-11-05T17:48:14.797Z,75.01
2022-11-05T17:50:43.868Z,76.61
2022-11-05T17:53:13.490Z,77.04
2022-11-05T17:55:42.812Z,77.16
2022-11-05T17:58:10.573Z,76.75
2022-11-05T18:00:39.390Z,76.28
2022-11-05T18:03:06.526Z,75.95
2022-11-05T18:05:35.017Z,76.17
2022-11-05T18:08:02.407Z,76.91
2022-11-05T18:10:29.978Z,77.54
2022-11-05T18:12:57.440Z,76.31
2022-11-05T18:15:24.522Z,75.82
2022-11-05T18:17:51.493Z,75.64
2022-11-05T18:20:19.751Z,76.00
2022-11-05T18:22:50.045Z,76.90
2022-11-05T18:25:17.835Z,74.63
2022-11-05T18:27:45.419Z,76.08
2022-11-05T18:30:15.672Z,75.41
2022-11-05T18:32:44.159Z,73.05
2022-11-05T18:35:13.164Z,73.58
2022-11-05T18:37:40.749Z,74.56
2022-11-05T18:40:08.513Z,74.44
2022-11-05T18:42:35.738Z,73.39
2022-11-05T18:45:04.839Z,73.65
2022-11-05T18:47:33.985Z,73.20
2022-11-05T18:50:02.013Z,73.43
2022-11-05T18:52:31.549Z,75.27
2022-11-05T18:54:59.387Z,74.52
2022-11-05T18:57:27.682Z,73.59
2022-11-05T18:59:56.019Z,73.01
2022-11-05T19:02:23.836Z,72.68
2022-11-05T19:05:14.442Z,73.84
2022-11-05T19:07:39.216Z,75.43
2022-11-05T19:10:07.469Z,77.82
2022-11-05T19:12:34.512Z,76.62
2022-11-05T19:15:02.986Z,76.57
2022-11-05T19:17:33.261Z,76.94
2022-11-05T19:20:00.960Z,76.34
2022-11-05T19:22:28.407Z,76.69
2022-11-05T19:24:55.405Z,78.27
2022-11-05T19:27:23.266Z,76.54
2022-11-05T19:29:50.319Z,77.27
2022-11-05T19:32:17.733Z,76.42
2022-11-05T19:34:44.706Z,76.62
2022-11-05T19:37:12.348Z,75.85
2022-11-05T19:39:40.455Z,76.05
2022-11-05T19:42:07.405Z,75.22
2022-11-05T19:44:34.442Z,76.08
2022-11-05T19:47:01.385Z,76.89
2022-11-05T19:49:28.714Z,76.42
2022-11-05T19:51:55.951Z,78.50
2022-11-05T19:54:23.048Z,76.32
2022-11-05T19:56:51.829Z,76.00
2022-11-05T19:59:19.037Z,74.56
2022-11-05T20:01:49.380Z,76.98
2022-11-05T20:04:16.456Z,76.36
2022-11-05T20:06:43.367Z,75.40
2022-11-05T20:09:22.722Z,75.25
2022-11-05T20:11:53.772Z,76.14
2022-11-05T20:14:21.097Z,76.99
2022-11-05T20:16:51.574Z,76.63
2022-11-05T20:19:21.419Z,77.00
2022-11-05T20:21:48.814Z,77.92
2022-11-05T20:24:24.288Z,78.04
2022-11-05T20:26:54.173Z,78.10
2022-11-05T20:29:22.303Z,77.82
2022-11-05T20:31:50.269Z,76.32
2022-11-05T20:34:17.216Z,76.38
2022-11-05T20:36:44.168Z,75.54
2022-11-05T20:39:12.116Z,75.92
2022-11-05T20:41:39.083Z,77.55
2022-11-05T20:44:06.301Z,78.31
2022-11-05T20:46:33.961Z,77.46
2022-11-05T20:49:01.049Z,78.10
2022-11-05T20:51:27.974Z,78.72
2022-11-05T20:53:59.555Z,75.44
2022-11-05T20:56:31.269Z,76.14
2022-11-05T20:59:00.029Z,78.73
2022-11-05T21:01:33.674Z,77.45
2022-11-05T21:04:01.168Z,77.52
2022-11-05T21:06:28.308Z,77.38
2022-11-05T21:08:55.449Z,78.63
2022-11-05T21:11:22.827Z,78.40
2022-11-05T21:13:50.088Z,75.33
2022-11-05T21:16:19.092Z,77.41
2022-11-05T21:18:47.684Z,77.14
2022-11-05T21:21:20.911Z,79.37
2022-11-05T21:23:48.328Z,78.60
2022-11-05T21:26:17.734Z,79.38
2022-11-05T21:28:44.767Z,75.98
2022-11-05T21:31:12.009Z,75.28
2022-11-05T21:33:39.200Z,75.02
2022-11-05T21:36:12.897Z,77.84
2022-11-05T21:38:40.999Z,73.88
2022-11-05T21:41:10.414Z,77.48
2022-11-05T21:43:39.610Z,75.04
2022-11-05T21:46:06.536Z,74.92
2022-11-05T21:48:33.969Z,76.41
2022-11-05T21:51:19.773Z,76.19
2022-11-05T21:54:05.951Z,76.73
2022-11-05T21:56:52.305Z,76.15
2022-11-05T21:59:42.246Z,77.29
2022-11-05T22:02:13.103Z,76.82
2022-11-05T22:04:44.196Z,78.32
2022-11-05T22:07:14.904Z,78.67
2022-11-05T22:09:42.949Z,78.55
2022-11-05T22:12:10.850Z,78.18
2022-11-05T22:14:38.099Z,76.70
2022-11-05T22:17:07.534Z,77.81
2022-11-05T22:19:35.599Z,78.54
2022-11-05T22:22:05.127Z,77.97
2022-11-05T22:24:33.302Z,75.88
2022-11-05T22:27:02.902Z,75.53
2022-11-05T22:29:30.249Z,75.21
2022-11-05T22:31:57.219Z,77.15
2022-11-05T22:34:25.723Z,77.17
2022-11-05T22:36:53.435Z,74.43
2022-11-05T22:39:21.088Z,76.87
2022-11-05T22:41:49.665Z,76.76
2022-11-05T22:44:17.251Z,75.89
2022-11-05T22:46:44.534Z,78.61
2022-11-05T22:49:12.134Z,78.35
2022-11-05T22:51:40.202Z,77.06
2022-11-05T22:54:08.061Z,76.90
2022-11-05T22:56:39.265Z,78.04
2022-11-05T22:59:12.051Z,77.61
2022-11-05T23:01:43.505Z,78.68
2022-11-05T23:04:11.611Z,75.31
2022-11-05T23:06:57.666Z,77.49
2022-11-05T23:09:50.978Z,77.56
2022-11-05T23:12:37.920Z,78.10
2022-11-05T23:15:07.621Z,78.73
2022-11-05T23:17:53.245Z,77.92
2022-11-05T23:20:41.877Z,75.32
2022-11-05T23:23:31.457Z,77.95
2022-11-05T23:26:00.072Z,77.93
2022-11-05T23:28:27.188Z,76.98
2022-11-05T23:31:12.571Z,76.38
2022-11-05T23:33:39.803Z,75.97
2022-11-05T23:36:25.842Z,75.83
2022-11-05T23:38:53.019Z,76.88
2022-11-05T23:41:41.707Z,75.71
2022-11-05T23:44:28.166Z,77.75
2022-11-05T23:47:15.966Z,79.14
2022-11-05T23:49:43.110Z,79.60
2022-11-05T23:52:10.143Z,79.23
2022-11-05T23:54:37.161Z,79.54
2022-11-05T23:57:04.652Z,80.72
2022-11-05T23:59:31.686Z,78.12
